Time;durP1;ratioP1;P1;durP2;ratioP2;P2;SDS_P1;SDS_P2;PMS_P1;PMS_P2;Temp;Humidity;BMP_temperature;BMP_pressure;BME280_temperature;BME280_humidity;BME280_pressure;Samples;Min_cycle;Max_cycle;Signal;HPM_P1;HPM_P2
2021/12/26 00:00:36;;;;;;;;;;;;;;;;;;1903304;28;7093;-63
2021/12/26 00:01:34;;;;;;;;;;;;;;;;;;1902539;28;8039;-62
2021/12/26 00:02:32;;;;;;;;;;;;;;;;;;1895325;28;7018;-62
2021/12/26 00:03:32;;;;;;;;;;;;;;;;;;1893082;28;8044;-63
2021/12/26 00:04:30;;;;;;;;;;;;;;;;;;1902002;28;7038;-63
2021/12/26 00:05:28;;;;;;;;;;;;;;;;;;1903153;28;7038;-62
2021/12/26 00:06:26;;;;;;;;;;;;;;;;;;1901920;28;7025;-62
2021/12/26 00:07:24;;;;;;;;;;;;;;;;;;1902620;28;7126;-62
2021/12/26 00:08:23;;;;;;;;;;;;;;;;;;1903519;28;7014;-62
2021/12/26 00:09:20;;;;;;;;;;;;;;;;;;1902370;28;7100;-62
2021/12/26 00:10:20;;;;;;;;;;;;;;;;;;1901210;28;7013;-62
2021/12/26 00:11:19;;;;;;;;;;;;;;;;;;1898963;28;7045;-62
2021/12/26 00:12:16;;;;;;;;;;;;;;;;;;1903274;28;7021;-63
2021/12/26 00:13:14;;;;;;;;;;;;;;;;;;1901961;28;7026;-61
2021/12/26 00:14:12;;;;;;;;;;;;;;;;;;1902749;28;7018;-62
2021/12/26 00:15:10;;;;;;;;;;;;;;;;;;1902714;28;7125;-62
2021/12/26 00:16:07;;;;;;;;;;;;;;;;;;1902692;28;7022;-62
2021/12/26 00:17:05;;;;;;;;;;;;;;;;;;1902765;28;7010;-61
2021/12/26 00:18:02;;;;;;;;;;;;;;;;;;1903204;28;7021;-62
2021/12/26 00:19:00;;;;;;;;;;;;;;;;;;1899646;28;7096;-62
2021/12/26 00:19:58;;;;;;;;;;;;;;;;;;1896986;28;7021;-63
2021/12/26 00:20:55;;;;;;;;;;;;;;;;;;1903857;28;7092;-62
2021/12/26 00:21:52;;;;;;;;;;;;;;;;;;1903950;28;7013;-62
2021/12/26 00:22:50;;;;;;;;;;;;;;;;;;1904329;28;7097;-62
2021/12/26 00:23:50;;;;;;;;;;;;;;;;;;1903115;28;7113;-62
2021/12/26 00:24:48;;;;;;;;;;;;;;;;;;1903832;28;7119;-62
2021/12/26 00:25:45;;;;;;;;;;;;;;;;;;1903900;28;7010;-62
2021/12/26 00:26:43;;;;;;;;;;;;;;;;;;1904393;28;7888;-62
2021/12/26 00:27:41;;;;;;;;;;;;;;;;;;1904032;28;7119;-62
2021/12/26 00:28:38;;;;;;;;;;;;;;;;;;1904639;28;7010;-62
2021/12/26 00:29:36;;;;;;;;;;;;;;;;;;1905698;28;7006;-62
2021/12/26 00:30:33;;;;;;;;;;;;;;;;;;1905636;28;7006;-63
2021/12/26 00:31:31;;;;;;;;;;;;;;;;;;1907235;28;7097;-62
2021/12/26 00:32:28;;;;;;;;;;;;;;;;;;1904686;28;9320;-62
2021/12/26 00:33:26;;;;;;;;;;;;;;;;;;1905436;28;7010;-62
2021/12/26 00:34:23;;;;;;;;;;;;;;;;;;1905480;28;7005;-62
2021/12/26 00:35:22;;;;;;;;;;;;;;;;;;1905190;28;7092;-62
2021/12/26 00:36:19;;;;;;;;;;;;;;;;;;1905630;28;7025;-62
2021/12/26 00:37:18;;;;;;;;;;;;;;;;;;1904862;28;7026;-62
2021/12/26 00:38:16;;;;;;;;;;;;;;;;;;1904036;28;7034;-62
2021/12/26 00:39:15;;;;;;;;;;;;;;;;;;1905258;28;7100;-62
2021/12/26 00:40:14;;;;;;;;;;;;;;;;;;1906176;28;7026;-62
2021/12/26 00:41:12;;;;;;;;;;;;;;;;;;1905259;28;7046;-62
2021/12/26 00:42:10;;;;;;;;;;;;;;;;;;1905487;28;8055;-62
2021/12/26 00:43:08;;;;;;;;;;;;;;;;;;1905566;28;7010;-62
2021/12/26 00:44:07;;;;;;;;;;;;;;;;;;1905806;28;7096;-62
2021/12/26 00:45:06;;;;;;;;;;;;;;;;;;1905279;28;7010;-62
2021/12/26 00:46:04;;;;;;;;;;;;;;;;;;1904815;28;7113;-62
2021/12/26 00:47:01;;;;;;;;;;;;;;;;;;1904872;28;7001;-62
2021/12/26 00:47:59;;;;;;;;;;;;;;;;;;1905189;28;7046;-63
2021/12/26 00:48:56;;;;;;;;;;;;;;;;;;1904103;28;7034;-62
2021/12/26 00:49:54;;;;;;;;;;;;;;;;;;1905539;28;7006;-62
2021/12/26 00:50:51;;;;;;;;;;;;;;;;;;1905172;28;7092;-62
2021/12/26 00:51:50;;;;;;;;;;;;;;;;;;1903810;28;7049;-62
2021/12/26 00:52:47;;;;;;;;;;;;;;;;;;1904607;28;7088;-62
2021/12/26 00:53:44;;;;;;;;;;;;;;;;;;1904789;28;7002;-62
2021/12/26 00:54:42;;;;;;;;;;;;;;;;;;1905153;28;7010;-62
2021/12/26 00:55:39;;;;;;;;;;;;;;;;;;1903885;28;7757;-62
2021/12/26 00:56:37;;;;;;;;;;;;;;;;;;1905081;28;7371;-62
2021/12/26 00:57:34;;;;;;;;;;;;;;;;;;1904982;28;7006;-63
2021/12/26 00:58:32;;;;;;;;;;;;;;;;;;1904843;28;7017;-63
2021/12/26 00:59:30;;;;;;;;;;;;;;;;;;1904889;28;7057;-63
2021/12/26 01:00:30;;;;;;;;;;;;;;;;;;1905035;28;7022;-62
2021/12/26 01:01:27;;;;;;;;;;;;;;;;;;1904497;28;7105;-62
2021/12/26 01:02:28;;;;;;;;;;;;;;;;;;1905620;28;7018;-63
2021/12/26 01:03:25;;;;;;;;;;;;;;;;;;1904726;28;7124;-63
2021/12/26 01:04:23;;;;;;;;;;;;;;;;;;1903374;28;7013;-63
2021/12/26 01:05:21;;;;;;;;;;;;;;;;;;1905438;28;7310;-62
2021/12/26 01:06:19;;;;;;;;;;;;;;;;;;1905683;28;7113;-62
2021/12/26 01:07:30;;;;;;;;;;;;;;;;;;1905676;28;8115;-62
2021/12/26 01:08:30;;;;;;;;;;;;;;;;;;1905798;28;7141;-63
2021/12/26 01:09:29;;;;;;;;;;;;;;;;;;1905693;28;7167;-62
2021/12/26 01:10:33;;;;;;;;;;;;;;;;;;1905330;28;7030;-62
2021/12/26 01:11:39;;;;;;;;;;;;;;;;;;1904367;28;7005;-62
2021/12/26 01:12:38;;;;;;;;;;;;;;;;;;1901849;28;7042;-62
2021/12/26 01:13:38;;;;;;;;;;;;;;;;;;1905277;28;8036;-62
2021/12/26 01:14:37;;;;;;;;;;;;;;;;;;1905566;28;7120;-63
2021/12/26 01:15:34;;;;;;;;;;;;;;;;;;1905097;28;7010;-62
2021/12/26 01:16:32;;;;;;;;;;;;;;;;;;1905677;28;7009;-62
2021/12/26 01:17:30;;;;;;;;;;;;;;;;;;1904996;28;7009;-62
2021/12/26 01:18:31;;;;;;;;;;;;;;;;;;1905461;28;7014;-62
2021/12/26 01:19:34;;;;;;;;;;;;;;;;;;1905162;28;7026;-63
2021/12/26 01:20:57;;;;;;;;;;;;;;;;;;1905481;28;7096;-62
2021/12/26 01:21:56;;;;;;;;;;;;;;;;;;1905558;28;7009;-63
2021/12/26 01:22:53;;;;;;;;;;;;;;;;;;1905119;28;7148;-62
2021/12/26 01:23:53;;;;;;;;;;;;;;;;;;1905003;28;7006;-63
2021/12/26 01:24:57;;;;;;;;;;;;;;;;;;1905364;28;7117;-62
2021/12/26 01:25:56;;;;;;;;;;;;;;;;;;1905184;28;7050;-63
2021/12/26 01:26:53;;;;;;;;;;;;;;;;;;1905461;28;7029;-63
2021/12/26 01:27:51;;;;;;;;;;;;;;;;;;1905488;28;7093;-63
2021/12/26 01:28:48;;;;;;;;;;;;;;;;;;1903976;28;7383;-62
2021/12/26 01:29:46;;;;;;;;;;;;;;;;;;1904996;28;7017;-62
2021/12/26 01:30:43;;;;;;;;;;;;;;;;;;1905543;28;7134;-62
2021/12/26 01:31:41;;;;;;;;;;;;;;;;;;1904477;28;7041;-62
2021/12/26 01:32:38;;;;;;;;;;;;;;;;;;1905901;28;7010;-62
2021/12/26 01:33:37;;;;;;;;;;;;;;;;;;1905454;28;7077;-63
2021/12/26 01:34:34;;;;;;;;;;;;;;;;;;1904959;28;7092;-62
2021/12/26 01:35:32;;;;;;;;;;;;;;;;;;1905071;28;8016;-62
2021/12/26 01:36:31;;;;;;;;;;;;;;;;;;1905616;28;7009;-62
2021/12/26 01:37:28;;;;;;;;;;;;;;;;;;1905773;28;7005;-62
2021/12/26 01:38:25;;;;;;;;;;;;;;;;;;1905472;28;7005;-62
2021/12/26 01:39:24;;;;;;;;;;;;;;;;;;1905430;28;7093;-63
2021/12/26 01:40:22;;;;;;;;;;;;;;;;;;1904421;28;7097;-62
2021/12/26 01:41:19;;;;;;;;;;;;;;;;;;1905367;28;7009;-62
2021/12/26 01:42:17;;;;;;;;;;;;;;;;;;1905155;28;7013;-62
2021/12/26 01:43:16;;;;;;;;;;;;;;;;;;1905509;28;7006;-63
2021/12/26 01:44:15;;;;;;;;;;;;;;;;;;1897224;28;8325;-63
2021/12/26 01:45:13;;;;;;;;;;;;;;;;;;1896245;28;7038;-63
2021/12/26 01:46:11;;;;;;;;;;;;;;;;;;1903465;28;7017;-63
2021/12/26 01:47:09;;;;;;;;;;;;;;;;;;1905241;28;7013;-62
2021/12/26 01:48:07;;;;;;;;;;;;;;;;;;1904614;28;7372;-62
2021/12/26 01:49:10;;;;;;;;;;;;;;;;;;1904790;28;7021;-62
2021/12/26 01:50:08;;;;;;;;;;;;;;;;;;1904286;28;7046;-63
2021/12/26 01:51:05;;;;;;;;;;;;;;;;;;1904549;28;7014;-63
2021/12/26 01:52:05;;;;;;;;;;;;;;;;;;1904430;28;7002;-61
2021/12/26 01:53:05;;;;;;;;;;;;;;;;;;1904284;28;7046;-63
2021/12/26 01:54:06;;;;;;;;;;;;;;;;;;1904737;28;7009;-62
2021/12/26 01:55:25;;;;;;;;;;;;;;;;;;1904500;28;7021;-62
2021/12/26 01:56:23;;;;;;;;;;;;;;;;;;1904257;28;7005;-63
2021/12/26 01:57:20;;;;;;;;;;;;;;;;;;1904595;28;7121;-62
2021/12/26 01:58:22;;;;;;;;;;;;;;;;;;1904877;28;7009;-62
2021/12/26 01:59:20;;;;;;;;;;;;;;;;;;1905485;28;7009;-63
2021/12/26 02:00:18;;;;;;;;;;;;;;;;;;1903750;28;7108;-62
2021/12/26 02:01:16;;;;;;;;;;;;;;;;;;1904576;28;7006;-62
2021/12/26 02:02:14;;;;;;;;;;;;;;;;;;1905310;28;7006;-63
2021/12/26 02:03:12;;;;;;;;;;;;;;;;;;1903134;28;7006;-62
2021/12/26 02:04:09;;;;;;;;;;;;;;;;;;1903938;28;7130;-61
2021/12/26 02:05:07;;;;;;;;;;;;;;;;;;1903985;28;7005;-62
2021/12/26 02:06:07;;;;;;;;;;;;;;;;;;1905514;28;7014;-62
2021/12/26 02:07:06;;;;;;;;;;;;;;;;;;1903938;28;7009;-63
2021/12/26 02:08:04;;;;;;;;;;;;;;;;;;1904799;28;7017;-62
2021/12/26 02:09:02;;;;;;;;;;;;;;;;;;1904689;28;8068;-61
2021/12/26 02:09:59;;;;;;;;;;;;;;;;;;1905069;28;7001;-62
2021/12/26 02:11:00;;;;;;;;;;;;;;;;;;1904800;28;7388;-62
2021/12/26 02:11:59;;;;;;;;;;;;;;;;;;1905102;28;7093;-62
2021/12/26 02:12:57;;;;;;;;;;;;;;;;;;1905162;28;7026;-63
2021/12/26 02:13:54;;;;;;;;;;;;;;;;;;1905006;28;7300;-63
2021/12/26 02:14:53;;;;;;;;;;;;;;;;;;1904941;28;7030;-62
2021/12/26 02:15:51;;;;;;;;;;;;;;;;;;1904698;28;8108;-63
2021/12/26 02:16:49;;;;;;;;;;;;;;;;;;1904450;28;8095;-62
2021/12/26 02:17:47;;;;;;;;;;;;;;;;;;1904404;28;7092;-62
2021/12/26 02:18:44;;;;;;;;;;;;;;;;;;1905103;28;8040;-63
2021/12/26 02:19:42;;;;;;;;;;;;;;;;;;1903592;28;7009;-63
2021/12/26 02:22:05;;;;;;;;;;;;;;;;;;1905145;28;7331;-62
2021/12/26 02:23:11;;;;;;;;;;;;;;;;;;1904302;28;7344;-62
2021/12/26 02:25:28;;;;;;;;;;;;;;;;;;1904742;28;7127;-63
2021/12/26 02:27:42;;;;;;;;;;;;;;;;;;1904467;28;7130;-62
2021/12/26 02:28:43;;;;;;;;;;;;;;;;;;1904671;28;7009;-63
2021/12/26 02:29:40;;;;;;;;;;;;;;;;;;1904756;28;7038;-63
2021/12/26 02:30:38;;;;;;;;;;;;;;;;;;1905036;28;7021;-62
2021/12/26 02:31:35;;;;;;;;;;;;;;;;;;1904817;28;7017;-62
2021/12/26 02:32:33;;;;;;;;;;;;;;;;;;1904766;28;7096;-61
2021/12/26 02:33:31;;;;;;;;;;;;;;;;;;1904962;28;7013;-62
2021/12/26 02:34:28;;;;;;;;;;;;;;;;;;1904067;28;7273;-63
2021/12/26 02:35:26;;;;;;;;;;;;;;;;;;1903778;28;8043;-62
2021/12/26 02:36:23;;;;;;;;;;;;;;;;;;1904582;28;8091;-62
2021/12/26 02:37:21;;;;;;;;;;;;;;;;;;1904823;28;7308;-62
2021/12/26 02:38:18;;;;;;;;;;;;;;;;;;1904677;28;7049;-62
2021/12/26 02:39:16;;;;;;;;;;;;;;;;;;1904214;28;7013;-63
2021/12/26 02:40:16;;;;;;;;;;;;;;;;;;1904610;28;7096;-62
2021/12/26 02:41:14;;;;;;;;;;;;;;;;;;1904905;28;8047;-62
2021/12/26 02:42:11;;;;;;;;;;;;;;;;;;1905552;28;7439;-62
2021/12/26 02:43:16;;;;;;;;;;;;;;;;;;1893029;28;7128;-63
2021/12/26 02:44:14;;;;;;;;;;;;;;;;;;1896482;28;7093;-63
2021/12/26 02:45:13;;;;;;;;;;;;;;;;;;1905212;28;7048;-62
2021/12/26 02:46:11;;;;;;;;;;;;;;;;;;1904344;28;7041;-62
2021/12/26 02:47:08;;;;;;;;;;;;;;;;;;1904184;28;7038;-62
2021/12/26 02:48:09;;;;;;;;;;;;;;;;;;1904394;28;7021;-62
2021/12/26 02:49:08;;;;;;;;;;;;;;;;;;1904228;28;7388;-63
2021/12/26 02:50:08;;;;;;;;;;;;;;;;;;1904481;28;7049;-63
2021/12/26 02:51:06;;;;;;;;;;;;;;;;;;1903889;28;7089;-62
2021/12/26 02:52:04;;;;;;;;;;;;;;;;;;1904137;28;7042;-62
2021/12/26 02:53:03;;;;;;;;;;;;;;;;;;1904544;28;7106;-62
2021/12/26 02:54:00;;;;;;;;;;;;;;;;;;1904233;28;7046;-62
2021/12/26 02:55:01;;;;;;;;;;;;;;;;;;1903906;28;7010;-62
2021/12/26 02:56:00;;;;;;;;;;;;;;;;;;1903240;28;7164;-62
2021/12/26 02:56:57;;;;;;;;;;;;;;;;;;1903391;28;7046;-62
2021/12/26 02:57:57;;;;;;;;;;;;;;;;;;1903931;28;7038;-62
2021/12/26 02:58:54;;;;;;;;;;;;;;;;;;1903455;28;7153;-62
2021/12/26 02:59:51;;;;;;;;;;;;;;;;;;1904595;28;7045;-62
2021/12/26 03:00:55;;;;;;;;;;;;;;;;;;1904653;28;7134;-62
2021/12/26 03:01:53;;;;;;;;;;;;;;;;;;1904515;28;7058;-63
2021/12/26 03:02:52;;;;;;;;;;;;;;;;;;1904042;28;7014;-62
2021/12/26 03:03:50;;;;;;;;;;;;;;;;;;1903292;28;8040;-62
2021/12/26 03:04:47;;;;;;;;;;;;;;;;;;1903740;28;7022;-63
2021/12/26 03:05:53;;;;;;;;;;;;;;;;;;1903960;28;7100;-63
2021/12/26 03:07:02;;;;;;;;;;;;;;;;;;1904517;28;7041;-63
2021/12/26 03:07:59;;;;;;;;;;;;;;;;;;1904374;28;7014;-63
2021/12/26 03:08:57;;;;;;;;;;;;;;;;;;1904217;28;7042;-62
2021/12/26 03:09:59;;;;;;;;;;;;;;;;;;1904629;28;8445;-62
2021/12/26 03:10:57;;;;;;;;;;;;;;;;;;1904904;28;7041;-62
2021/12/26 03:11:54;;;;;;;;;;;;;;;;;;1904730;28;7097;-62
2021/12/26 03:12:57;;;;;;;;;;;;;;;;;;1903587;28;7006;-63
2021/12/26 03:13:55;;;;;;;;;;;;;;;;;;1903663;28;7046;-63
2021/12/26 03:14:52;;;;;;;;;;;;;;;;;;1904429;28;7001;-62
2021/12/26 03:15:50;;;;;;;;;;;;;;;;;;1904449;28;7113;-63
2021/12/26 03:16:49;;;;;;;;;;;;;;;;;;1904256;28;7042;-62
2021/12/26 03:17:47;;;;;;;;;;;;;;;;;;1903539;28;7042;-62
2021/12/26 03:18:44;;;;;;;;;;;;;;;;;;1904532;28;7002;-63
2021/12/26 03:19:42;;;;;;;;;;;;;;;;;;1904404;28;7009;-62
2021/12/26 03:20:42;;;;;;;;;;;;;;;;;;1904629;28;7312;-62
2021/12/26 03:21:40;;;;;;;;;;;;;;;;;;1901944;28;7006;-62
2021/12/26 03:22:38;;;;;;;;;;;;;;;;;;1904528;28;7010;-62
2021/12/26 03:23:35;;;;;;;;;;;;;;;;;;1904698;28;7320;-62
2021/12/26 03:24:34;;;;;;;;;;;;;;;;;;1902990;28;7399;-62
2021/12/26 03:25:32;;;;;;;;;;;;;;;;;;1903541;28;7029;-62
2021/12/26 03:26:30;;;;;;;;;;;;;;;;;;1904745;28;7009;-63
2021/12/26 03:27:27;;;;;;;;;;;;;;;;;;1903975;28;7014;-63
2021/12/26 03:28:25;;;;;;;;;;;;;;;;;;1904382;28;7033;-62
2021/12/26 03:29:23;;;;;;;;;;;;;;;;;;1895974;28;7096;-63
2021/12/26 03:30:23;;;;;;;;;;;;;;;;;;1895813;28;7054;-63
2021/12/26 03:31:21;;;;;;;;;;;;;;;;;;1903458;28;7050;-63
2021/12/26 03:32:19;;;;;;;;;;;;;;;;;;1904611;28;7029;-62
2021/12/26 03:33:16;;;;;;;;;;;;;;;;;;1904004;28;7109;-63
2021/12/26 03:34:14;;;;;;;;;;;;;;;;;;1904339;28;7005;-62
2021/12/26 03:35:12;;;;;;;;;;;;;;;;;;1904636;28;7018;-62
2021/12/26 03:36:09;;;;;;;;;;;;;;;;;;1903239;28;7096;-62
2021/12/26 03:37:07;;;;;;;;;;;;;;;;;;1904134;28;7141;-63
2021/12/26 03:38:06;;;;;;;;;;;;;;;;;;1896234;28;7092;-62
2021/12/26 03:39:05;;;;;;;;;;;;;;;;;;1892499;28;7027;-63
2021/12/26 03:40:03;;;;;;;;;;;;;;;;;;1903820;28;7009;-61
2021/12/26 03:41:00;;;;;;;;;;;;;;;;;;1903425;28;7349;-63
2021/12/26 03:41:58;;;;;;;;;;;;;;;;;;1904891;28;8059;-63
2021/12/26 03:42:56;;;;;;;;;;;;;;;;;;1904087;28;7005;-62
2021/12/26 03:44:07;;;;;;;;;;;;;;;;;;1904674;28;7104;-62
2021/12/26 03:45:06;;;;;;;;;;;;;;;;;;1904065;28;7193;-62
2021/12/26 03:46:03;;;;;;;;;;;;;;;;;;1904050;28;7013;-62
2021/12/26 03:47:01;;;;;;;;;;;;;;;;;;1903920;28;7022;-62
2021/12/26 03:47:59;;;;;;;;;;;;;;;;;;1903788;28;8012;-63
2021/12/26 03:49:00;;;;;;;;;;;;;;;;;;1904038;28;7076;-62
2021/12/26 03:49:58;;;;;;;;;;;;;;;;;;1904121;28;7018;-63
2021/12/26 03:50:58;;;;;;;;;;;;;;;;;;1903601;28;7038;-63
2021/12/26 03:51:55;;;;;;;;;;;;;;;;;;1904280;28;8040;-63
2021/12/26 03:52:56;;;;;;;;;;;;;;;;;;1904217;28;8095;-62
2021/12/26 03:53:54;;;;;;;;;;;;;;;;;;1904044;28;7088;-62
2021/12/26 03:54:52;;;;;;;;;;;;;;;;;;1903598;28;7148;-62
2021/12/26 03:55:50;;;;;;;;;;;;;;;;;;1903565;28;7093;-62
2021/12/26 03:56:48;;;;;;;;;;;;;;;;;;1903507;28;7009;-63
2021/12/26 03:57:46;;;;;;;;;;;;;;;;;;1904281;28;7045;-63
2021/12/26 03:58:43;;;;;;;;;;;;;;;;;;1902765;28;7109;-62
2021/12/26 03:59:41;;;;;;;;;;;;;;;;;;1903250;28;7010;-62
2021/12/26 04:00:39;;;;;;;;;;;;;;;;;;1903660;28;7384;-63
2021/12/26 04:01:37;;;;;;;;;;;;;;;;;;1903350;28;7096;-62
2021/12/26 04:02:35;;;;;;;;;;;;;;;;;;1904392;28;7153;-63
2021/12/26 04:03:32;;;;;;;;;;;;;;;;;;1903604;28;7013;-62
2021/12/26 04:04:30;;;;;;;;;;;;;;;;;;1903824;28;7203;-62
2021/12/26 04:05:27;;;;;;;;;;;;;;;;;;1904033;28;8011;-62
2021/12/26 04:06:25;;;;;;;;;;;;;;;;;;1903764;28;8044;-62
2021/12/26 04:07:22;;;;;;;;;;;;;;;;;;1903603;28;7101;-63
2021/12/26 04:08:20;;;;;;;;;;;;;;;;;;1905710;28;8031;-63
2021/12/26 04:09:18;;;;;;;;;;;;;;;;;;1906874;28;7156;-63
2021/12/26 04:10:16;;;;;;;;;;;;;;;;;;1906785;28;7109;-62
2021/12/26 04:11:14;;;;;;;;;;;;;;;;;;1907398;28;7088;-63
2021/12/26 04:12:11;;;;;;;;;;;;;;;;;;1906784;28;9401;-62
2021/12/26 04:13:09;;;;;;;;;;;;;;;;;;1906112;28;7034;-63
2021/12/26 04:14:06;;;;;;;;;;;;;;;;;;1906102;28;7109;-63
2021/12/26 04:15:07;;;;;;;;;;;;;;;;;;1906764;28;8050;-62
2021/12/26 04:16:04;;;;;;;;;;;;;;;;;;1906873;28;7005;-62
2021/12/26 04:17:05;;;;;;;;;;;;;;;;;;1906891;28;7017;-63
2021/12/26 04:18:04;;;;;;;;;;;;;;;;;;1906231;28;8036;-63
2021/12/26 04:19:04;;;;;;;;;;;;;;;;;;1906890;28;7092;-62
2021/12/26 04:20:03;;;;;;;;;;;;;;;;;;1906749;28;7092;-62
2021/12/26 04:21:01;;;;;;;;;;;;;;;;;;1906545;28;8258;-63
2021/12/26 04:21:59;;;;;;;;;;;;;;;;;;1907106;28;7101;-62
2021/12/26 04:22:57;;;;;;;;;;;;;;;;;;1906538;28;7014;-62
2021/12/26 04:23:55;;;;;;;;;;;;;;;;;;1906624;28;7465;-62
2021/12/26 04:24:52;;;;;;;;;;;;;;;;;;1906511;28;7155;-62
2021/12/26 04:25:49;;;;;;;;;;;;;;;;;;1906731;28;7010;-62
2021/12/26 04:26:47;;;;;;;;;;;;;;;;;;1907128;28;7010;-63
2021/12/26 04:27:44;;;;;;;;;;;;;;;;;;1906492;28;7010;-62
2021/12/26 04:28:42;;;;;;;;;;;;;;;;;;1906676;28;8038;-62
2021/12/26 04:29:39;;;;;;;;;;;;;;;;;;1907159;28;7013;-62
2021/12/26 04:30:37;;;;;;;;;;;;;;;;;;1906566;28;7143;-62
2021/12/26 04:31:36;;;;;;;;;;;;;;;;;;1906999;28;7320;-62
2021/12/26 04:32:33;;;;;;;;;;;;;;;;;;1906727;28;7104;-63
2021/12/26 04:33:31;;;;;;;;;;;;;;;;;;1907047;28;7133;-63
2021/12/26 04:34:28;;;;;;;;;;;;;;;;;;1907021;28;7353;-62
2021/12/26 04:35:26;;;;;;;;;;;;;;;;;;1906373;28;7088;-62
2021/12/26 04:36:23;;;;;;;;;;;;;;;;;;1906741;28;7109;-63
2021/12/26 04:37:21;;;;;;;;;;;;;;;;;;1905533;28;7013;-63
2021/12/26 04:38:18;;;;;;;;;;;;;;;;;;1906779;28;7053;-62
2021/12/26 04:39:16;;;;;;;;;;;;;;;;;;1904202;28;7093;-62
2021/12/26 04:40:14;;;;;;;;;;;;;;;;;;1900083;28;7316;-63
2021/12/26 04:41:12;;;;;;;;;;;;;;;;;;1899110;28;7324;-63
2021/12/26 04:42:09;;;;;;;;;;;;;;;;;;1899134;28;7084;-62
2021/12/26 04:43:07;;;;;;;;;;;;;;;;;;1898206;28;7037;-63
2021/12/26 04:44:05;;;;;;;;;;;;;;;;;;1898844;28;7058;-62
2021/12/26 04:45:03;;;;;;;;;;;;;;;;;;1899111;28;7009;-63
2021/12/26 04:46:05;;;;;;;;;;;;;;;;;;1898349;28;7148;-63
2021/12/26 04:47:03;;;;;;;;;;;;;;;;;;1898736;28;7914;-62
2021/12/26 04:48:02;;;;;;;;;;;;;;;;;;1898344;28;7276;-62
2021/12/26 04:49:00;;;;;;;;;;;;;;;;;;1891575;28;7025;-63
2021/12/26 04:49:57;;;;;;;;;;;;;;;;;;1890441;28;7026;-63
2021/12/26 04:50:55;;;;;;;;;;;;;;;;;;1897629;28;7009;-62
2021/12/26 04:51:52;;;;;;;;;;;;;;;;;;1898653;28;7010;-62
2021/12/26 04:52:51;;;;;;;;;;;;;;;;;;1898354;28;8043;-62
2021/12/26 04:53:49;;;;;;;;;;;;;;;;;;1898295;28;7009;-63
2021/12/26 04:54:46;;;;;;;;;;;;;;;;;;1899096;28;7046;-63
2021/12/26 04:55:43;;;;;;;;;;;;;;;;;;1898769;28;7013;-62
2021/12/26 04:56:41;;;;;;;;;;;;;;;;;;1898453;28;7013;-62
2021/12/26 04:57:38;;;;;;;;;;;;;;;;;;1898981;28;7018;-62
2021/12/26 04:58:36;;;;;;;;;;;;;;;;;;1898370;28;7167;-62
2021/12/26 04:59:33;;;;;;;;;;;;;;;;;;1898329;28;7009;-62
2021/12/26 05:00:32;;;;;;;;;;;;;;;;;;1897683;28;7013;-62
2021/12/26 05:01:29;;;;;;;;;;;;;;;;;;1899338;28;7096;-63
2021/12/26 05:02:29;;;;;;;;;;;;;;;;;;1899246;28;7021;-62
2021/12/26 05:03:26;;;;;;;;;;;;;;;;;;1898896;28;7014;-62
2021/12/26 05:04:24;;;;;;;;;;;;;;;;;;1898200;28;7096;-62
2021/12/26 05:05:22;;;;;;;;;;;;;;;;;;1899024;28;7017;-63
2021/12/26 05:06:19;;;;;;;;;;;;;;;;;;1898936;28;7096;-62
2021/12/26 05:07:16;;;;;;;;;;;;;;;;;;1898209;28;7018;-63
2021/12/26 05:08:15;;;;;;;;;;;;;;;;;;1898786;28;7058;-63
2021/12/26 05:09:14;;;;;;;;;;;;;;;;;;1899329;28;7010;-62
2021/12/26 05:10:14;;;;;;;;;;;;;;;;;;1898897;28;7100;-62
2021/12/26 05:11:12;;;;;;;;;;;;;;;;;;1898887;28;7092;-62
2021/12/26 05:12:09;;;;;;;;;;;;;;;;;;1898211;28;7046;-62
2021/12/26 05:13:07;;;;;;;;;;;;;;;;;;1898516;28;8103;-63
2021/12/26 05:14:04;;;;;;;;;;;;;;;;;;1898596;28;7047;-63
2021/12/26 05:15:05;;;;;;;;;;;;;;;;;;1899238;28;7085;-62
2021/12/26 05:16:03;;;;;;;;;;;;;;;;;;1899200;28;7113;-62
2021/12/26 05:17:01;;;;;;;;;;;;;;;;;;1899114;28;7013;-63
2021/12/26 05:17:59;;;;;;;;;;;;;;;;;;1898983;28;7096;-63
2021/12/26 05:18:56;;;;;;;;;;;;;;;;;;1898986;28;7093;-62
2021/12/26 05:19:54;;;;;;;;;;;;;;;;;;1897832;28;7093;-63
2021/12/26 05:20:51;;;;;;;;;;;;;;;;;;1897741;28;7669;-62
2021/12/26 05:21:49;;;;;;;;;;;;;;;;;;1898126;28;7092;-62
2021/12/26 05:22:47;;;;;;;;;;;;;;;;;;1898001;28;7002;-63
2021/12/26 05:23:45;;;;;;;;;;;;;;;;;;1898649;28;7054;-62
2021/12/26 05:24:42;;;;;;;;;;;;;;;;;;1897830;28;7146;-62
2021/12/26 05:25:39;;;;;;;;;;;;;;;;;;1897830;28;7005;-63
2021/12/26 05:26:37;;;;;;;;;;;;;;;;;;1897658;28;7124;-62
2021/12/26 05:27:34;;;;;;;;;;;;;;;;;;1897967;28;7005;-63
2021/12/26 05:28:34;;;;;;;;;;;;;;;;;;1897467;28;7006;-62
2021/12/26 05:29:31;;;;;;;;;;;;;;;;;;1897550;28;7026;-62
2021/12/26 05:30:29;;;;;;;;;;;;;;;;;;1897915;28;7627;-63
2021/12/26 05:31:26;;;;;;;;;;;;;;;;;;1897562;28;7316;-63
2021/12/26 05:32:24;;;;;;;;;;;;;;;;;;1898008;28;7356;-63
2021/12/26 05:33:21;;;;;;;;;;;;;;;;;;1897729;28;7093;-63
2021/12/26 05:34:19;;;;;;;;;;;;;;;;;;1897849;28;7775;-63
2021/12/26 05:35:17;;;;;;;;;;;;;;;;;;1897462;28;7058;-62
2021/12/26 05:36:15;;;;;;;;;;;;;;;;;;1897558;28;7046;-63
2021/12/26 05:37:12;;;;;;;;;;;;;;;;;;1898003;28;7021;-62
2021/12/26 05:38:10;;;;;;;;;;;;;;;;;;1896791;28;7042;-62
2021/12/26 05:39:07;;;;;;;;;;;;;;;;;;1898769;28;7021;-62
2021/12/26 05:40:06;;;;;;;;;;;;;;;;;;1905270;28;8039;-63
2021/12/26 05:41:03;;;;;;;;;;;;;;;;;;1905345;28;7009;-63
2021/12/26 05:42:01;;;;;;;;;;;;;;;;;;1903175;28;8039;-62
2021/12/26 05:42:58;;;;;;;;;;;;;;;;;;1904695;28;7380;-63
2021/12/26 05:43:55;;;;;;;;;;;;;;;;;;1905485;28;7093;-63
2021/12/26 05:44:53;;;;;;;;;;;;;;;;;;1905419;28;7096;-63
2021/12/26 05:45:50;;;;;;;;;;;;;;;;;;1904749;28;7038;-63
2021/12/26 05:46:48;;;;;;;;;;;;;;;;;;1905016;28;7029;-63
2021/12/26 05:47:45;;;;;;;;;;;;;;;;;;1905127;28;8059;-63
2021/12/26 05:48:43;;;;;;;;;;;;;;;;;;1903991;28;7014;-63
2021/12/26 05:49:40;;;;;;;;;;;;;;;;;;1903066;28;7010;-62
2021/12/26 05:50:39;;;;;;;;;;;;;;;;;;1905625;28;7113;-63
2021/12/26 05:51:36;;;;;;;;;;;;;;;;;;1905057;28;7010;-62
2021/12/26 05:52:33;;;;;;;;;;;;;;;;;;1904567;28;7100;-62
2021/12/26 05:53:31;;;;;;;;;;;;;;;;;;1904393;28;7042;-62
2021/12/26 05:54:28;;;;;;;;;;;;;;;;;;1905024;28;7009;-62
2021/12/26 05:55:26;;;;;;;;;;;;;;;;;;1904905;28;7022;-62
2021/12/26 05:56:23;;;;;;;;;;;;;;;;;;1904632;28;7092;-62
2021/12/26 05:57:21;;;;;;;;;;;;;;;;;;1904770;28;7022;-62
2021/12/26 05:58:18;;;;;;;;;;;;;;;;;;1904711;28;8055;-62
2021/12/26 05:59:16;;;;;;;;;;;;;;;;;;1904733;28;7093;-62
2021/12/26 06:00:15;;;;;;;;;;;;;;;;;;1904122;28;7005;-62
2021/12/26 06:01:12;;;;;;;;;;;;;;;;;;1904435;28;7006;-62
2021/12/26 06:02:10;;;;;;;;;;;;;;;;;;1904953;28;7009;-62
2021/12/26 06:03:08;;;;;;;;;;;;;;;;;;1904946;28;7005;-62
2021/12/26 06:04:05;;;;;;;;;;;;;;;;;;1904178;28;7953;-62
2021/12/26 06:05:03;;;;;;;;;;;;;;;;;;1903724;28;8054;-62
2021/12/26 06:06:00;;;;;;;;;;;;;;;;;;1905220;28;7105;-62
2021/12/26 06:06:58;;;;;;;;;;;;;;;;;;1905104;28;7103;-62
2021/12/26 06:07:56;;;;;;;;;;;;;;;;;;1902614;28;7121;-62
2021/12/26 06:08:53;;;;;;;;;;;;;;;;;;1904960;28;7192;-62
2021/12/26 06:09:51;;;;;;;;;;;;;;;;;;1905205;28;7005;-62
2021/12/26 06:10:48;;;;;;;;;;;;;;;;;;1895526;28;7096;-62
2021/12/26 06:11:46;;;;;;;;;;;;;;;;;;1895214;28;7189;-61
2021/12/26 06:12:43;;;;;;;;;;;;;;;;;;1903666;28;7029;-62
2021/12/26 06:13:41;;;;;;;;;;;;;;;;;;1904645;28;7124;-62
2021/12/26 06:14:38;;;;;;;;;;;;;;;;;;1904598;28;7006;-62
2021/12/26 06:15:36;;;;;;;;;;;;;;;;;;1904261;28;7030;-62
2021/12/26 06:16:33;;;;;;;;;;;;;;;;;;1904838;28;7021;-61
2021/12/26 06:17:31;;;;;;;;;;;;;;;;;;1905346;28;7093;-62
2021/12/26 06:18:29;;;;;;;;;;;;;;;;;;1906398;28;7006;-62
2021/12/26 06:19:26;;;;;;;;;;;;;;;;;;1905222;28;7125;-62
2021/12/26 06:20:23;;;;;;;;;;;;;;;;;;1905290;28;7092;-62
2021/12/26 06:21:22;;;;;;;;;;;;;;;;;;1905024;28;7045;-62
2021/12/26 06:22:19;;;;;;;;;;;;;;;;;;1904757;28;7013;-62
2021/12/26 06:23:16;;;;;;;;;;;;;;;;;;1895381;28;7034;-62
2021/12/26 06:24:14;;;;;;;;;;;;;;;;;;1896872;28;7113;-62
2021/12/26 06:25:13;;;;;;;;;;;;;;;;;;1904751;28;7006;-62
2021/12/26 06:26:11;;;;;;;;;;;;;;;;;;1905338;28;7153;-62
2021/12/26 06:27:08;;;;;;;;;;;;;;;;;;1905461;28;7049;-62
2021/12/26 06:28:06;;;;;;;;;;;;;;;;;;1904797;28;7010;-62
2021/12/26 06:29:04;;;;;;;;;;;;;;;;;;1904938;28;7029;-62
2021/12/26 06:30:03;;;;;;;;;;;;;;;;;;1904940;28;8047;-61
2021/12/26 06:31:00;;;;;;;;;;;;;;;;;;1904725;28;7005;-62
2021/12/26 06:31:58;;;;;;;;;;;;;;;;;;1905528;28;7046;-62
2021/12/26 06:32:59;;;;;;;;;;;;;;;;;;1904263;28;7021;-62
2021/12/26 06:33:56;;;;;;;;;;;;;;;;;;1904919;28;8039;-62
2021/12/26 06:34:54;;;;;;;;;;;;;;;;;;1905303;28;7017;-62
2021/12/26 06:35:51;;;;;;;;;;;;;;;;;;1904904;28;7120;-62
2021/12/26 06:36:49;;;;;;;;;;;;;;;;;;1904185;28;7352;-62
2021/12/26 06:37:46;;;;;;;;;;;;;;;;;;1905078;28;7046;-62
2021/12/26 06:38:47;;;;;;;;;;;;;;;;;;1905112;28;7096;-62
2021/12/26 06:39:44;;;;;;;;;;;;;;;;;;1903870;28;7033;-62
2021/12/26 06:40:42;;;;;;;;;;;;;;;;;;1905031;28;7078;-63
2021/12/26 06:41:39;;;;;;;;;;;;;;;;;;1905163;28;7009;-62
2021/12/26 06:42:44;;;;;;;;;;;;;;;;;;1906255;28;7093;-62
2021/12/26 06:43:43;;;;;;;;;;;;;;;;;;1904840;28;7270;-62
2021/12/26 06:44:41;;;;;;;;;;;;;;;;;;1905223;28;7033;-62
2021/12/26 06:45:38;;;;;;;;;;;;;;;;;;1904710;28;7092;-62
2021/12/26 06:46:36;;;;;;;;;;;;;;;;;;1904815;28;8061;-62
2021/12/26 06:47:35;;;;;;;;;;;;;;;;;;1905055;28;7093;-62
2021/12/26 06:48:33;;;;;;;;;;;;;;;;;;1904482;28;7994;-62
2021/12/26 06:49:31;;;;;;;;;;;;;;;;;;1904600;28;7055;-62